Time;durP1;ratioP1;P1;durP2;ratioP2;P2;SDS_P1;SDS_P2;PMS_P1;PMS_P2;Temp;Humidity;BMP_temperature;BMP_pressure;BME280_temperature;BME280_humidity;BME280_pressure;Samples;Min_cycle;Max_cycle;Signal;HPM_P1;HPM_P2
2022/01/12 00:00:55;;;;;;;22.73;10.98;;;3.30;99.90;;;;;;5111654;28;20047;-87
2022/01/12 00:03:21;;;;;;;27.55;11.60;;;3.40;99.90;;;;;;5113154;28;20039;-87
2022/01/12 00:05:47;;;;;;;25.02;10.88;;;3.30;99.90;;;;;;5112683;28;20046;-89
2022/01/12 00:08:12;;;;;;;19.70;10.35;;;3.90;99.90;;;;;;5112180;28;20357;-84
2022/01/12 00:10:39;;;;;;;18.85;7.97;;;3.40;99.90;;;;;;5111590;28;20055;-85
2022/01/12 00:13:05;;;;;;;20.48;9.32;;;3.40;99.90;;;;;;5113003;28;20075;-85
2022/01/12 00:15:30;;;;;;;27.20;11.07;;;3.40;99.90;;;;;;5112767;28;20135;-86
2022/01/12 00:17:56;;;;;;;26.48;9.50;;;3.40;99.90;;;;;;5123138;28;20130;-89
2022/01/12 00:20:22;;;;;;;27.05;11.57;;;3.40;99.90;;;;;;5133629;27;20101;-83
2022/01/12 00:22:48;;;;;;;24.10;11.55;;;3.40;99.90;;;;;;5136440;27;20108;-83
2022/01/12 00:33:12;;;;;;;24.65;11.00;;;3.40;99.90;;;;;;5121336;27;20483;-86
2022/01/12 00:35:43;;;;;;;23.10;9.20;;;3.40;99.90;;;;;;5135414;27;20063;-88
2022/01/12 00:38:10;;;;;;;23.40;8.38;;;3.40;99.90;;;;;;5135258;27;20452;-89
2022/01/12 00:40:54;;;;;;;17.77;7.93;;;3.70;99.90;;;;;;5136996;27;20043;-87
2022/01/12 00:43:22;;;;;;;19.23;7.68;;;3.40;99.90;;;;;;5136832;27;20035;-90
2022/01/12 00:45:48;;;;;;;19.60;7.82;;;3.40;99.90;;;;;;5135759;27;20047;-90
2022/01/12 00:48:16;;;;;;;23.65;8.55;;;3.50;99.90;;;;;;5128979;27;20122;-90
2022/01/12 00:50:43;;;;;;;21.08;8.10;;;3.40;99.90;;;;;;5115156;28;20399;-88
2022/01/12 00:53:09;;;;;;;15.68;6.90;;;3.50;99.90;;;;;;5116081;28;20043;-91
2022/01/12 00:55:36;;;;;;;16.52;6.40;;;3.40;99.90;;;;;;5116088;28;20052;-83
2022/01/12 00:58:02;;;;;;;19.02;8.00;;;3.50;99.90;;;;;;5116015;28;20066;-88
2022/01/12 01:00:29;;;;;;;30.25;11.55;;;3.50;99.90;;;;;;5131118;27;20539;-85
2022/01/12 01:02:56;;;;;;;23.42;10.60;;;3.50;99.90;;;;;;5130688;27;20040;-87
2022/01/12 01:05:23;;;;;;;24.92;8.57;;;3.50;99.90;;;;;;5136384;27;20054;-80
2022/01/12 01:07:51;;;;;;;18.75;7.30;;;3.50;99.90;;;;;;5135417;27;20050;-89
2022/01/12 01:10:27;;;;;;;23.15;8.35;;;3.50;99.90;;;;;;5136289;27;20122;-85
2022/01/12 01:12:53;;;;;;;19.48;8.65;;;3.50;99.90;;;;;;5131036;27;20379;-83
2022/01/12 01:15:28;;;;;;;18.52;7.90;;;3.50;99.90;;;;;;5114602;28;20047;-89
2022/01/12 01:26:06;;;;;;;21.48;9.18;;;3.50;99.90;;;;;;5117229;27;20126;-89
2022/01/12 01:28:32;;;;;;;24.83;8.48;;;3.60;99.90;;;;;;5116393;28;20123;-90
2022/01/12 01:30:57;;;;;;;19.10;8.32;;;3.60;99.90;;;;;;5114917;28;20052;-89
2022/01/12 01:33:26;;;;;;;26.65;10.63;;;3.60;99.90;;;;;;5115557;27;20036;-87
2022/01/12 01:35:56;;;;;;;18.58;8.43;;;3.60;99.90;;;;;;5138637;27;20062;-81
2022/01/12 01:38:22;;;;;;;19.65;7.47;;;3.60;99.90;;;;;;5137882;27;20059;-87
2022/01/12 01:40:48;;;;;;;20.35;8.07;;;3.60;99.90;;;;;;5154873;27;20041;-90
2022/01/12 01:53:59;;;;;;;16.55;5.55;;;3.70;99.90;;;;;;5118120;27;20042;-83
2022/01/12 01:56:25;;;;;;;18.67;7.93;;;3.70;99.90;;;;;;5135527;27;20086;-89
2022/01/12 01:58:51;;;;;;;24.33;9.65;;;3.70;99.90;;;;;;5117097;27;20461;-90
2022/01/12 02:01:17;;;;;;;26.73;10.40;;;3.70;99.90;;;;;;5136047;27;20031;-86
2022/01/12 02:03:43;;;;;;;27.45;10.75;;;3.70;99.90;;;;;;5135629;27;20035;-86
2022/01/12 02:06:09;;;;;;;27.67;11.52;;;4.10;99.90;;;;;;5136242;27;20039;-87
2022/01/12 02:08:38;;;;;;;24.65;10.40;;;3.80;99.90;;;;;;5118337;27;20415;-82
2022/01/12 02:11:04;;;;;;;26.48;10.15;;;3.80;99.90;;;;;;5155884;27;20083;-85
2022/01/12 02:13:30;;;;;;;18.65;8.07;;;3.80;99.90;;;;;;5154050;27;20046;-89
2022/01/12 02:15:57;;;;;;;18.73;6.95;;;4.50;99.90;;;;;;5136300;27;20038;-85
2022/01/12 02:40:27;;;;;;;15.88;6.28;;;3.90;99.90;;;;;;5116326;27;20391;-83
2022/01/12 02:43:42;;;;;;;16.60;6.78;;;3.90;99.90;;;;;;5116164;27;20077;-84
2022/01/12 02:50:41;;;;;;;15.30;6.28;;;3.90;99.90;;;;;;5134656;27;20043;-86
2022/01/12 02:51:33;;;;;;;14.70;5.55;;;3.90;99.90;;;;;;5137211;27;20467;-85
2022/01/12 02:53:59;;;;;;;17.17;6.35;;;3.80;99.90;;;;;;5136522;27;20050;-87
2022/01/12 02:56:30;;;;;;;17.23;6.68;;;3.80;99.90;;;;;;5117314;27;20043;-83
2022/01/12 02:58:58;;;;;;;16.05;6.50;;;4.30;99.90;;;;;;5153299;27;20035;-84
2022/01/12 03:03:59;;;;;;;16.23;6.65;;;4.00;99.90;;;;;;5136332;27;20050;-85
2022/01/12 03:06:30;;;;;;;20.13;7.07;;;3.60;99.90;;;;;;5154699;27;20046;-85
2022/01/12 03:08:56;;;;;;;18.13;7.20;;;3.50;99.90;;;;;;5134464;27;20148;-83
2022/01/12 03:11:23;;;;;;;16.25;6.70;;;3.40;99.90;;;;;;5153038;27;20410;-79
2022/01/12 03:13:50;;;;;;;18.73;7.05;;;3.40;99.90;;;;;;5154783;27;20042;-82
2022/01/12 03:16:19;;;;;;;14.77;6.22;;;3.30;99.90;;;;;;5136020;27;20035;-87
2022/01/12 03:18:54;;;;;;;14.80;6.40;;;3.30;99.90;;;;;;5152728;27;20050;-85
2022/01/12 03:21:24;;;;;;;18.23;6.40;;;3.20;99.90;;;;;;5154707;27;20118;-89
2022/01/12 03:23:51;;;;;;;16.92;6.63;;;3.10;99.90;;;;;;5136155;27;20053;-87
2022/01/12 03:26:17;;;;;;;17.63;6.60;;;3.10;99.90;;;;;;5134113;27;20080;-87
2022/01/12 03:28:43;;;;;;;14.88;6.15;;;3.10;99.90;;;;;;5133959;27;20043;-90
2022/01/12 03:38:52;;;;;;;11.45;5.05;;;3.00;99.90;;;;;;5134278;27;20497;-80
2022/01/12 03:41:18;;;;;;;11.63;4.85;;;3.00;99.90;;;;;;5152690;27;20122;-91
2022/01/12 03:43:44;;;;;;;11.10;4.53;;;3.00;99.90;;;;;;5154351;27;20045;-90
2022/01/12 03:46:11;;;;;;;9.82;4.63;;;2.90;99.90;;;;;;5135788;27;20093;-90
2022/01/12 03:48:37;;;;;;;7.93;4.00;;;2.90;99.90;;;;;;5154276;27;20035;-86
2022/01/12 03:51:02;;;;;;;6.93;3.15;;;2.90;99.90;;;;;;5154544;27;20042;-88
2022/01/12 03:53:28;;;;;;;8.05;3.78;;;2.90;99.90;;;;;;5143584;27;20042;-89
2022/01/12 03:55:54;;;;;;;9.48;4.30;;;2.90;99.90;;;;;;5133504;27;20043;-85
2022/01/12 03:58:19;;;;;;;7.68;3.72;;;2.90;99.90;;;;;;5137651;27;20114;-85
2022/01/12 04:00:45;;;;;;;6.18;3.20;;;2.90;99.90;;;;;;5119442;27;20051;-86
2022/01/12 04:03:13;;;;;;;7.18;3.60;;;2.80;99.90;;;;;;5137656;27;20073;-88
2022/01/12 04:08:20;;;;;;;8.52;4.03;;;2.80;99.90;;;;;;5137652;27;20525;-87
2022/01/12 04:10:51;;;;;;;9.43;3.75;;;2.70;99.90;;;;;;5119145;27;20126;-88
2022/01/12 04:13:18;;;;;;;9.15;4.25;;;2.60;99.90;;;;;;5138672;27;20051;-90
2022/01/12 04:15:46;;;;;;;9.30;3.78;;;2.60;99.90;;;;;;5118874;27;20047;-91
2022/01/12 04:18:12;;;;;;;7.13;3.65;;;2.60;99.90;;;;;;5137625;27;20039;-86
2022/01/12 04:20:45;;;;;;;6.72;3.25;;;2.50;99.90;;;;;;5119043;27;20104;-83
2022/01/12 04:23:17;;;;;;;8.10;3.88;;;2.50;99.90;;;;;;5139437;27;20474;-87
2022/01/12 04:25:54;;;;;;;6.85;3.45;;;2.50;99.90;;;;;;5158042;27;20042;-88
2022/01/12 04:28:21;;;;;;;8.60;4.13;;;2.50;99.90;;;;;;5158207;27;20067;-89
2022/01/12 04:30:49;;;;;;;6.65;3.33;;;2.80;99.90;;;;;;5120855;27;20043;-87
2022/01/12 04:33:16;;;;;;;11.90;4.72;;;2.40;99.90;;;;;;5137122;27;20031;-83
2022/01/12 04:35:48;;;;;;;8.15;3.85;;;2.40;99.90;;;;;;5136913;27;20381;-89
2022/01/12 04:38:14;;;;;;;11.50;4.68;;;2.40;99.90;;;;;;5118658;27;20047;-87
2022/01/12 04:40:40;;;;;;;8.77;3.75;;;2.40;99.90;;;;;;5136966;27;20047;-83
2022/01/12 04:43:08;;;;;;;12.02;4.82;;;2.30;99.90;;;;;;5137199;27;20172;-82
2022/01/12 04:48:08;;;;;;;10.35;4.97;;;2.20;99.90;;;;;;5127586;27;20051;-86
2022/01/12 04:50:37;;;;;;;8.52;3.67;;;2.20;99.90;;;;;;5136692;27;20420;-88
2022/01/12 04:53:03;;;;;;;10.27;3.83;;;2.20;99.90;;;;;;5118501;27;20501;-89
2022/01/12 04:55:29;;;;;;;7.85;3.63;;;2.20;99.90;;;;;;5136812;27;20414;-88
2022/01/12 04:57:55;;;;;;;9.05;4.25;;;2.10;99.90;;;;;;5118511;27;20084;-89
2022/01/12 05:00:22;;;;;;;8.30;3.20;;;2.10;99.90;;;;;;5101386;27;20495;-88
2022/01/12 05:08:24;;;;;;;7.00;3.15;;;2.10;99.90;;;;;;5136223;27;20168;-90
2022/01/12 05:13:36;;;;;;;5.18;2.30;;;2.10;99.90;;;;;;5136386;27;20039;-89
2022/01/12 05:16:02;;;;;;;5.28;2.63;;;2.10;99.90;;;;;;5136200;27;20047;-85
2022/01/12 05:18:29;;;;;;;3.35;1.77;;;2.00;99.90;;;;;;5119918;27;20039;-83
2022/01/12 05:20:55;;;;;;;5.25;1.90;;;2.00;99.90;;;;;;5136333;27;20099;-90
2022/01/12 05:23:21;;;;;;;4.53;2.30;;;2.00;99.90;;;;;;5136448;27;20168;-87
2022/01/12 05:25:47;;;;;;;5.57;2.00;;;2.00;99.90;;;;;;5136197;27;20043;-87
2022/01/12 05:28:13;;;;;;;2.85;1.90;;;2.70;99.90;;;;;;5137154;27;20050;-85
2022/01/12 05:30:40;;;;;;;3.70;1.83;;;2.00;99.90;;;;;;5142617;27;20047;-90
2022/01/12 05:33:06;;;;;;;3.67;2.13;;;1.90;99.90;;;;;;5118152;27;20035;-92
2022/01/12 05:35:33;;;;;;;4.15;1.88;;;1.90;99.90;;;;;;5117531;27;20055;-91
2022/01/12 05:38:01;;;;;;;2.92;1.60;;;1.90;99.90;;;;;;5136431;27;20193;-94
2022/01/12 05:40:27;;;;;;;3.45;1.77;;;1.80;99.90;;;;;;5118081;27;20394;-86
2022/01/12 05:42:54;;;;;;;3.85;2.13;;;1.80;99.90;;;;;;5135954;27;20065;-90
2022/01/12 05:45:22;;;;;;;3.92;1.90;;;1.80;99.90;;;;;;5140708;27;20109;-91
2022/01/12 05:50:15;;;;;;;3.72;1.90;;;1.70;99.90;;;;;;5131947;27;20039;-91
2022/01/12 05:52:41;;;;;;;3.13;1.63;;;1.70;99.90;;;;;;5117553;27;20047;-90
2022/01/12 05:55:08;;;;;;;2.40;1.70;;;1.60;99.90;;;;;;5135737;27;20051;-92
2022/01/12 05:57:34;;;;;;;3.40;1.50;;;1.60;99.90;;;;;;5135805;27;20420;-91
2022/01/12 06:00:04;;;;;;;2.90;1.80;;;1.60;99.90;;;;;;5150685;27;20046;-87
2022/01/12 06:02:30;;;;;;;2.78;2.03;;;1.50;99.90;;;;;;5138034;27;20050;-91
2022/01/12 06:04:55;;;;;;;3.38;1.90;;;1.50;99.90;;;;;;5137625;27;20053;-91
2022/01/12 06:07:21;;;;;;;3.97;2.10;;;1.50;99.90;;;;;;5137807;27;20088;-90
2022/01/12 06:09:47;;;;;;;4.00;1.92;;;1.40;99.90;;;;;;5156120;27;20050;-91
2022/01/12 06:12:12;;;;;;;4.18;2.05;;;1.40;99.90;;;;;;5156123;27;20038;-92
2022/01/12 06:14:38;;;;;;;2.92;1.63;;;1.40;99.90;;;;;;5141094;27;20054;-89
2022/01/12 06:17:04;;;;;;;2.63;1.70;;;1.40;99.90;;;;;;5135063;27;20054;-91
2022/01/12 06:19:30;;;;;;;3.25;1.70;;;1.30;99.90;;;;;;5134731;27;20046;-83
2022/01/12 06:21:55;;;;;;;2.00;1.23;;;1.30;99.90;;;;;;5117003;27;20134;-88
2022/01/12 06:24:21;;;;;;;2.65;1.73;;;1.30;99.90;;;;;;5137627;27;20042;-91
2022/01/12 06:26:47;;;;;;;2.30;1.65;;;1.30;99.90;;;;;;5153541;27;20035;-91
2022/01/12 06:31:50;;;;;;;2.38;1.42;;;1.20;99.90;;;;;;5116398;27;20415;-91
2022/01/12 06:34:16;;;;;;;3.17;1.83;;;1.20;99.90;;;;;;5116459;27;20065;-78
2022/01/12 06:36:42;;;;;;;2.40;1.42;;;1.20;99.90;;;;;;5140118;27;20498;-82
2022/01/12 06:39:10;;;;;;;2.35;1.40;;;1.20;99.90;;;;;;5155537;27;20038;-88
2022/01/12 06:41:37;;;;;;;1.67;1.08;;;1.10;99.90;;;;;;5134031;27;20104;-86
2022/01/12 06:44:04;;;;;;;2.53;1.60;;;1.10;99.90;;;;;;5134756;27;20039;-87
2022/01/12 06:46:31;;;;;;;3.45;1.60;;;1.10;99.90;;;;;;5134427;27;20047;-85
2022/01/12 06:48:57;;;;;;;2.15;1.45;;;1.00;99.90;;;;;;5116208;27;20051;-87
2022/01/12 06:51:23;;;;;;;2.47;1.80;;;1.00;99.90;;;;;;5116331;27;20475;-89
2022/01/12 06:53:49;;;;;;;1.55;1.30;;;1.00;99.90;;;;;;5134671;27;20119;-89
2022/01/12 06:56:17;;;;;;;1.77;1.30;;;0.90;99.90;;;;;;5138073;27;20051;-85
2022/01/12 06:58:43;;;;;;;2.30;1.40;;;0.90;99.90;;;;;;5116065;27;20058;-89
2022/01/12 07:01:09;;;;;;;3.58;1.17;;;0.80;99.90;;;;;;5135254;27;20050;-90
2022/01/12 07:03:35;;;;;;;1.98;1.30;;;0.80;99.90;;;;;;5153639;27;20536;-80
2022/01/12 07:06:00;;;;;;;2.08;1.30;;;0.80;99.90;;;;;;5136317;27;20493;-91
2022/01/12 07:08:26;;;;;;;3.03;1.42;;;0.80;99.90;;;;;;5148795;27;20043;-90
2022/01/12 07:10:51;;;;;;;1.85;1.10;;;0.80;99.90;;;;;;5131082;27;20149;-90
2022/01/12 07:13:17;;;;;;;2.58;1.20;;;0.80;99.90;;;;;;5154917;27;20041;-90
2022/01/12 07:15:44;;;;;;;1.88;0.95;;;0.80;99.90;;;;;;5154743;27;20049;-88
2022/01/12 07:18:10;;;;;;;1.40;1.10;;;0.80;99.90;;;;;;5136370;27;20081;-91
2022/01/12 07:20:36;;;;;;;1.75;1.15;;;0.80;99.90;;;;;;5154648;27;20478;-91
2022/01/12 07:23:02;;;;;;;1.50;1.00;;;0.80;99.90;;;;;;5150701;27;20105;-91
2022/01/12 07:25:27;;;;;;;1.30;0.88;;;0.70;99.90;;;;;;5134054;27;20058;-89
2022/01/12 07:27:53;;;;;;;2.03;1.05;;;0.80;99.90;;;;;;5133901;27;20039;-83
2022/01/12 07:30:21;;;;;;;1.00;0.82;;;0.70;99.90;;;;;;5133785;27;20042;-90
2022/01/12 07:32:46;;;;;;;1.30;0.98;;;0.70;99.90;;;;;;5133750;27;20068;-87
2022/01/12 07:35:12;;;;;;;1.25;0.80;;;0.70;99.90;;;;;;5142771;27;20047;-85
2022/01/12 07:37:38;;;;;;;1.35;0.77;;;0.70;99.90;;;;;;5151179;27;20046;-85
2022/01/12 07:40:04;;;;;;;1.30;0.82;;;0.70;99.90;;;;;;5133633;28;20039;-88
2022/01/12 07:42:30;;;;;;;1.83;0.90;;;0.70;99.90;;;;;;5133600;28;20560;-86
2022/01/12 07:45:00;;;;;;;1.38;0.90;;;0.70;99.90;;;;;;5115534;28;20085;-85
2022/01/12 07:47:31;;;;;;;1.55;0.98;;;0.70;99.90;;;;;;5133557;28;20047;-86
2022/01/12 07:49:58;;;;;;;2.13;1.30;;;0.60;99.90;;;;;;5113676;27;20382;-85
2022/01/12 07:52:24;;;;;;;2.03;1.20;;;0.60;99.90;;;;;;5154227;27;20039;-87
2022/01/12 07:54:50;;;;;;;1.77;1.33;;;1.50;99.90;;;;;;5150684;27;20092;-86
2022/01/12 07:57:16;;;;;;;1.83;1.23;;;0.60;99.90;;;;;;5133766;28;20479;-86
2022/01/12 07:59:42;;;;;;;1.80;1.08;;;0.60;99.90;;;;;;5115177;28;20088;-86
2022/01/12 08:02:09;;;;;;;3.22;1.30;;;0.60;99.90;;;;;;5129714;27;20099;-88
2022/01/12 08:04:34;;;;;;;1.60;1.02;;;0.60;99.90;;;;;;5154235;27;20041;-87
2022/01/12 08:07:02;;;;;;;1.83;1.10;;;0.60;99.90;;;;;;5134175;27;20416;-87
2022/01/12 08:09:28;;;;;;;2.75;0.93;;;0.60;99.90;;;;;;5151778;27;20046;-87
2022/01/12 08:11:54;;;;;;;2.25;1.33;;;0.60;99.90;;;;;;5133463;28;20530;-82
2022/01/12 08:14:19;;;;;;;2.03;1.17;;;0.50;99.90;;;;;;5133632;28;20047;-84
2022/01/12 08:16:46;;;;;;;1.58;1.10;;;0.60;99.90;;;;;;5114706;28;20039;-88
2022/01/12 08:19:12;;;;;;;2.17;1.23;;;0.50;99.90;;;;;;5122348;27;20050;-85
2022/01/12 08:21:37;;;;;;;2.78;1.23;;;0.60;99.90;;;;;;5143376;27;20043;-83
2022/01/12 08:24:03;;;;;;;3.15;1.60;;;0.60;99.90;;;;;;5115356;28;20130;-87
2022/01/12 08:26:29;;;;;;;1.95;1.10;;;0.60;99.90;;;;;;5133458;28;20034;-89
2022/01/12 08:28:55;;;;;;;2.67;1.50;;;0.60;99.90;;;;;;5115067;28;20062;-91
2022/01/12 08:31:21;;;;;;;3.20;1.55;;;0.70;99.90;;;;;;5133329;28;20039;-88
2022/01/12 08:33:48;;;;;;;4.50;2.03;;;0.70;99.90;;;;;;5133715;27;20213;-91
2022/01/12 08:36:15;;;;;;;4.50;1.63;;;0.70;99.90;;;;;;5117750;28;20047;-90
2022/01/12 08:38:41;;;;;;;4.72;1.83;;;0.70;99.90;;;;;;5133416;28;20044;-88
2022/01/12 08:41:07;;;;;;;3.05;1.60;;;0.70;99.90;;;;;;5152647;27;20590;-79
2022/01/12 08:43:33;;;;;;;3.25;1.38;;;0.70;99.90;;;;;;5156343;27;20113;-79
2022/01/12 08:45:58;;;;;;;1.95;1.08;;;0.70;99.90;;;;;;5155661;27;20483;-82
2022/01/12 08:48:24;;;;;;;1.60;1.00;;;0.70;99.90;;;;;;5157537;27;20113;-80
2022/01/12 08:50:50;;;;;;;2.20;1.33;;;0.70;99.90;;;;;;5157808;27;20416;-84
2022/01/12 08:53:16;;;;;;;1.42;0.98;;;0.70;99.90;;;;;;5136630;27;20031;-82
2022/01/12 08:55:42;;;;;;;1.48;1.10;;;0.70;99.90;;;;;;5155481;27;20499;-82
2022/01/12 08:58:08;;;;;;;1.65;0.90;;;0.80;99.90;;;;;;5157366;27;20054;-83
2022/01/12 09:00:34;;;;;;;1.73;1.02;;;0.80;99.90;;;;;;5156784;27;20033;-81
2022/01/12 09:03:01;;;;;;;1.42;0.90;;;0.80;99.90;;;;;;5157037;27;20081;-81
2022/01/12 09:05:27;;;;;;;1.63;1.00;;;0.80;99.90;;;;;;5124189;27;20051;-80
2022/01/12 09:07:55;;;;;;;1.83;1.20;;;1.10;99.90;;;;;;5152280;27;20035;-81
2022/01/12 09:10:21;;;;;;;1.80;1.20;;;0.90;99.90;;;;;;5157713;27;20103;-80
2022/01/12 09:12:47;;;;;;;1.42;1.00;;;0.90;99.90;;;;;;5118724;27;20047;-81
2022/01/12 09:15:13;;;;;;;1.58;0.90;;;0.90;99.90;;;;;;5136340;27;20100;-83
2022/01/12 09:17:39;;;;;;;2.38;1.15;;;0.90;99.90;;;;;;5121292;27;20552;-79
2022/01/12 09:20:07;;;;;;;1.63;1.05;;;1.00;99.90;;;;;;5118128;27;20372;-81
2022/01/12 09:22:34;;;;;;;1.85;1.02;;;1.00;99.90;;;;;;5136319;27;20039;-79
2022/01/12 09:24:59;;;;;;;1.67;0.77;;;1.00;99.90;;;;;;5136297;27;20043;-80
2022/01/12 09:27:25;;;;;;;2.00;1.00;;;1.10;99.90;;;;;;5113667;27;20570;-79
2022/01/12 09:29:51;;;;;;;1.52;0.88;;;1.20;99.90;;;;;;5135976;27;20031;-80
2022/01/12 09:45:02;;;;;;;2.53;0.90;;;1.30;99.90;;;;;;5144779;27;20061;-81
2022/01/12 09:47:28;;;;;;;1.90;0.90;;;1.30;99.90;;;;;;5135925;27;20518;-81
2022/01/12 09:49:54;;;;;;;1.42;0.90;;;2.00;99.90;;;;;;5135687;27;20089;-81
2022/01/12 09:52:19;;;;;;;1.50;0.90;;;1.20;99.90;;;;;;5136732;27;20076;-85
2022/01/12 09:54:46;;;;;;;2.05;1.00;;;1.40;99.90;;;;;;5147112;27;20039;-82
2022/01/12 09:57:13;;;;;;;2.08;1.23;;;1.40;99.90;;;;;;5135405;27;20104;-82
2022/01/12 09:59:39;;;;;;;1.05;0.80;;;1.40;99.90;;;;;;5136564;27;20078;-82
2022/01/12 10:02:15;;;;;;;1.27;0.80;;;1.40;99.90;;;;;;5135512;27;20451;-81
2022/01/12 10:04:40;;;;;;;1.42;0.90;;;1.40;99.90;;;;;;5122348;27;20505;-80
2022/01/12 10:07:06;;;;;;;0.77;0.65;;;1.50;99.90;;;;;;5156222;27;20042;-81
2022/01/12 10:09:48;;;;;;;1.08;0.60;;;1.50;99.90;;;;;;5149193;27;20081;-79
2022/01/12 10:12:15;;;;;;;2.17;1.08;;;1.50;99.90;;;;;;5117937;27;20054;-81
2022/01/12 10:14:59;;;;;;;15.50;3.15;;;2.20;99.90;;;;;;5136244;27;20038;-82
2022/01/12 10:17:42;;;;;;;0.93;0.60;;;1.70;99.90;;;;;;5152062;27;20443;-81
2022/01/12 10:20:14;;;;;;;1.83;0.60;;;1.70;99.90;;;;;;5137409;27;20061;-85
2022/01/12 10:22:56;;;;;;;1.00;0.80;;;1.80;99.90;;;;;;5155196;27;20037;-84
2022/01/12 10:25:22;;;;;;;1.23;0.80;;;1.60;99.90;;;;;;5137043;27;20049;-83
2022/01/12 10:27:49;;;;;;;1.02;0.75;;;1.90;99.90;;;;;;5128399;27;20088;-84
2022/01/12 10:30:26;;;;;;;1.13;0.75;;;2.00;99.90;;;;;;5133259;27;20391;-87
2022/01/12 10:33:08;;;;;;;1.45;0.60;;;2.00;99.90;;;;;;5136641;27;20046;-89
2022/01/12 10:35:40;;;;;;;1.50;0.90;;;2.10;99.90;;;;;;5155150;27;20406;-87
2022/01/12 10:38:17;;;;;;;1.45;0.80;;;2.50;99.90;;;;;;5147161;27;20114;-86
2022/01/12 10:40:48;;;;;;;1.45;0.80;;;2.90;99.90;;;;;;5153921;27;20461;-85
2022/01/12 10:43:27;;;;;;;4.85;1.10;;;2.40;99.90;;;;;;5150434;27;20076;-86
2022/01/12 10:45:52;;;;;;;1.38;1.00;;;2.40;99.90;;;;;;5116127;27;20510;-85
2022/01/12 10:48:18;;;;;;;2.10;0.80;;;2.50;99.90;;;;;;5138414;27;20038;-87
2022/01/12 10:50:56;;;;;;;1.40;0.60;;;2.50;99.90;;;;;;5136654;27;20053;-86
2022/01/12 10:53:34;;;;;;;2.03;0.80;;;2.60;99.90;;;;;;5133823;27;20042;-87
2022/01/12 10:56:06;;;;;;;1.42;0.75;;;2.70;99.90;;;;;;5144667;27;20045;-84
2022/01/12 10:58:33;;;;;;;1.23;0.73;;;2.70;99.90;;;;;;5154962;27;20045;-89
2022/01/12 11:01:04;;;;;;;1.08;0.60;;;3.20;99.90;;;;;;5150134;27;20108;-87
2022/01/12 11:03:31;;;;;;;0.85;0.60;;;2.90;99.90;;;;;;5134788;27;20455;-86
2022/01/12 11:05:58;;;;;;;2.28;0.88;;;2.90;99.90;;;;;;5105571;22;20049;-88
2022/01/12 11:08:25;;;;;;;3.88;1.08;;;3.40;99.90;;;;;;5051276;28;20055;-87
2022/01/12 11:10:52;;;;;;;2.35;1.02;;;3.10;99.90;;;;;;5035627;28;20055;-90
2022/01/12 11:13:18;;;;;;;4.03;1.30;;;3.20;99.90;;;;;;5035710;28;20043;-91
2022/01/12 11:15:44;;;;;;;4.05;1.10;;;3.30;99.90;;;;;;5053222;28;20040;-91
2022/01/12 11:18:10;;;;;;;1.80;0.90;;;3.30;99.90;;;;;;5053255;28;20548;-91
2022/01/12 11:20:40;;;;;;;2.78;1.52;;;3.40;99.90;;;;;;5035225;28;20128;-90
2022/01/12 11:23:14;;;;;;;2.42;1.33;;;3.50;99.90;;;;;;5035218;28;20060;-90
2022/01/12 11:25:45;;;;;;;1.40;0.75;;;3.50;99.90;;;;;;5053063;28;20041;-88
2022/01/12 11:28:18;;;;;;;3.03;1.20;;;3.60;99.90;;;;;;5053246;28;20052;-91
2022/01/12 11:30:50;;;;;;;3.05;1.00;;;3.60;99.90;;;;;;5052750;28;20509;-91
2022/01/12 11:33:17;;;;;;;2.25;0.93;;;3.70;99.90;;;;;;5034967;28;20135;-85
2022/01/12 11:35:46;;;;;;;4.35;2.03;;;3.80;99.90;;;;;;5052548;28;20148;-88
2022/01/12 11:38:24;;;;;;;3.60;1.50;;;3.80;99.90;;;;;;5018420;28;20545;-86
2022/01/12 11:40:52;;;;;;;3.63;1.40;;;4.00;99.90;;;;;;5035225;28;20067;-89
2022/01/12 11:43:25;;;;;;;2.85;1.10;;;4.00;99.90;;;;;;5035386;28;20049;-88
2022/01/12 11:46:06;;;;;;;3.30;1.60;;;4.00;99.90;;;;;;5052829;28;20048;-87
2022/01/12 11:48:45;;;;;;;4.72;1.73;;;4.30;99.90;;;;;;5034944;28;20045;-91
2022/01/12 11:51:12;;;;;;;2.85;1.50;;;4.20;99.90;;;;;;5052658;28;20053;-91
2022/01/12 11:53:51;;;;;;;3.28;1.45;;;4.20;99.90;;;;;;5052836;28;20120;-89
2022/01/12 11:56:22;;;;;;;3.30;1.67;;;4.30;99.90;;;;;;5034645;28;20044;-89
2022/01/12 11:59:01;;;;;;;3.45;1.50;;;4.30;99.90;;;;;;5052764;28;20059;-91
2022/01/12 12:01:48;;;;;;;4.32;1.88;;;4.40;99.90;;;;;;5034665;28;20048;-86
2022/01/12 12:04:25;;;;;;;2.78;1.27;;;4.50;99.90;;;;;;5052567;28;20045;-89
2022/01/12 12:07:12;;;;;;;3.13;1.00;;;4.50;99.90;;;;;;5031511;28;20077;-91
2022/01/12 12:09:43;;;;;;;7.40;2.72;;;4.60;99.90;;;;;;5032617;28;20125;-89
2022/01/12 12:12:19;;;;;;;4.75;2.00;;;4.70;99.90;;;;;;5032566;28;20041;-90
2022/01/12 12:14:53;;;;;;;2.80;1.38;;;4.70;99.90;;;;;;5032728;28;20045;-89
2022/01/12 12:17:19;;;;;;;4.85;2.00;;;5.00;99.90;;;;;;5031825;28;20107;-91
2022/01/12 12:19:46;;;;;;;7.22;2.90;;;4.80;99.90;;;;;;5036541;28;20052;-89
2022/01/12 12:22:30;;;;;;;7.68;2.30;;;4.80;99.90;;;;;;5036124;28;20053;-88
2022/01/12 12:25:03;;;;;;;4.95;2.10;;;4.80;99.90;;;;;;5035330;28;20045;-84
2022/01/12 12:27:30;;;;;;;3.97;2.28;;;4.90;99.90;;;;;;5035319;28;20140;-89
2022/01/12 12:29:57;;;;;;;4.70;2.42;;;4.90;99.90;;;;;;5034923;28;20552;-89
2022/01/12 12:32:43;;;;;;;3.53;1.63;;;5.30;99.90;;;;;;5034753;28;20520;-88
2022/01/12 12:35:15;;;;;;;4.53;2.20;;;5.00;99.90;;;;;;5034509;28;20502;-87
2022/01/12 12:37:51;;;;;;;4.15;1.92;;;5.00;99.90;;;;;;5035059;28;20053;-92
2022/01/12 12:40:28;;;;;;;8.05;3.30;;;5.10;99.90;;;;;;5036052;28;20091;-87
2022/01/12 12:43:03;;;;;;;6.07;2.67;;;5.10;99.90;;;;;;5036426;28;20046;-89
2022/01/12 12:45:40;;;;;;;4.15;2.38;;;5.20;99.90;;;;;;5037180;28;20033;-90
2022/01/12 12:48:07;;;;;;;3.97;2.00;;;5.20;99.90;;;;;;5037565;28;20045;-91
2022/01/12 12:50:33;;;;;;;4.95;1.60;;;5.20;99.90;;;;;;5036573;28;20096;-91
2022/01/12 12:53:00;;;;;;;4.53;2.67;;;5.20;99.90;;;;;;5034640;28;20054;-91
2022/01/12 12:55:26;;;;;;;4.53;2.00;;;5.30;99.90;;;;;;5035774;28;20045;-90
2022/01/12 12:57:54;;;;;;;8.15;2.75;;;5.30;99.90;;;;;;5034644;28;20446;-90
2022/01/12 13:00:26;;;;;;;6.80;2.95;;;5.30;99.90;;;;;;5035666;28;20041;-89
2022/01/12 13:02:56;;;;;;;8.93;3.90;;;5.40;99.90;;;;;;5035840;28;20052;-90
2022/01/12 13:05:34;;;;;;;6.20;2.40;;;6.10;99.90;;;;;;5040611;28;20489;-90
2022/01/12 13:08:00;;;;;;;9.48;3.83;;;6.10;99.90;;;;;;5037752;28;20037;-90
2022/01/12 13:10:31;;;;;;;9.35;3.70;;;6.20;99.90;;;;;;5029121;28;20390;-93
2022/01/12 13:13:00;;;;;;;8.82;3.45;;;5.80;99.90;;;;;;5035491;28;20052;-86
2022/01/12 13:15:37;;;;;;;7.57;3.03;;;6.00;99.90;;;;;;5035593;28;20489;-91
2022/01/12 13:18:07;;;;;;;5.57;2.20;;;5.90;99.90;;;;;;5030472;28;20041;-91
2022/01/12 13:23:24;;;;;;;11.63;3.45;;;5.50;99.90;;;;;;5054923;28;20098;-86
2022/01/12 13:25:54;;;;;;;6.30;2.55;;;5.50;99.90;;;;;;5054894;28;20522;-85
2022/01/12 13:28:20;;;;;;;4.55;2.13;;;5.50;99.90;;;;;;5036802;28;20094;-87
2022/01/12 13:30:56;;;;;;;5.68;2.53;;;5.50;99.90;;;;;;5036962;28;20494;-87
2022/01/12 13:33:25;;;;;;;9.52;3.88;;;5.60;99.90;;;;;;5045520;28;20541;-87
2022/01/12 13:35:50;;;;;;;12.30;4.28;;;5.50;99.90;;;;;;5023863;28;20474;-86
2022/01/12 13:38:29;;;;;;;6.82;2.63;;;6.30;99.90;;;;;;5054560;28;20124;-88
2022/01/12 13:40:56;;;;;;;11.55;4.07;;;5.50;99.90;;;;;;5043520;28;20046;-87
2022/01/12 13:43:23;;;;;;;9.57;3.55;;;5.50;99.90;;;;;;5017126;28;20045;-88
2022/01/12 13:45:56;;;;;;;13.55;4.28;;;6.20;99.90;;;;;;5034672;28;20049;-87
2022/01/12 13:48:31;;;;;;;11.70;3.35;;;5.50;99.90;;;;;;5028939;28;20064;-85
2022/01/12 13:50:59;;;;;;;11.68;4.00;;;5.50;99.90;;;;;;5054343;28;20055;-86
2022/01/12 13:53:39;;;;;;;10.57;3.50;;;5.50;99.90;;;;;;5054415;28;20052;-86
2022/01/12 13:56:07;;;;;;;11.82;3.92;;;5.40;99.90;;;;;;5054412;28;20051;-87
2022/01/12 13:58:38;;;;;;;9.60;3.67;;;5.70;99.90;;;;;;5036428;28;20044;-90
2022/01/12 14:01:11;;;;;;;9.52;3.13;;;5.40;99.90;;;;;;5044059;28;20120;-89
2022/01/12 14:03:51;;;;;;;11.65;3.67;;;5.40;99.90;;;;;;5016701;28;20191;-88
2022/01/12 14:06:20;;;;;;;9.75;3.08;;;5.70;99.90;;;;;;5034038;28;20061;-87
2022/01/12 14:08:52;;;;;;;8.77;3.42;;;5.50;99.90;;;;;;5016935;28;20184;-91
2022/01/12 14:11:17;;;;;;;8.98;3.53;;;5.40;99.90;;;;;;5034225;28;20053;-90
2022/01/12 14:13:43;;;;;;;12.38;4.70;;;5.80;99.90;;;;;;5049648;28;20037;-90
2022/01/12 14:16:11;;;;;;;8.93;3.53;;;5.50;99.90;;;;;;5035734;28;20041;-89
2022/01/12 14:18:38;;;;;;;14.10;3.42;;;5.50;99.90;;;;;;5033961;28;20040;-94
2022/01/12 14:21:19;;;;;;;8.77;3.42;;;5.50;99.90;;;;;;5033767;28;20490;-90
2022/01/12 14:23:45;;;;;;;9.32;3.88;;;5.50;99.90;;;;;;5033938;28;20042;-92
2022/01/12 14:26:20;;;;;;;9.13;3.13;;;5.50;99.90;;;;;;5016305;28;20081;-89
2022/01/12 14:28:46;;;;;;;10.90;2.97;;;5.50;99.90;;;;;;5034384;28;20043;-87
2022/01/12 14:31:11;;;;;;;12.50;4.13;;;5.90;99.90;;;;;;5052360;28;20389;-89
2022/01/12 14:33:37;;;;;;;6.47;3.22;;;5.50;99.90;;;;;;5053344;28;20447;-90
2022/01/12 14:36:03;;;;;;;8.55;3.75;;;5.50;99.90;;;;;;5047695;28;20067;-90